Latest Weather Observations for Yarram Airport

IDV60801

Issued at 5:42 pm EST Saturday 22 September 2018 (issued every 10 minutes, with the page automatically refreshed every 10 minutes)

About weather observations | Map of weather stations | Latest weather observations for VIC | Other Formats
Station Details ID: 085151 Name: YARRAM AIRPORT Lat: -38.56 Lon: 146.75 Height: 17.9 m
Data from the previous 72 hours. | See also: Recent months at Yarram Airport
Date/Time
EST
Temp
°C
App
Temp
°C
Dew
Point
°C
Rel
Hum
%
Delta-T
°C
Wind Press
QNH
hPa
Press
MSL
hPa
Rain since
9am
mm
Dir  Spd
km/h
Gust
km/h
Spd
kts
Gust
kts
22/05:30pm 13.3 7.7 7.1 66 3.0 WSW 26 32 14 17 1024.9 1025.0 0.0
22/05:00pm 14.3 7.5 6.9 61 3.6 WSW 32 46 17 25 1024.6 1024.7 0.0
22/04:30pm 15.1 8.6 8.1 63 3.5 WSW 32 44 17 24 1024.3 1024.4 0.0
22/04:00pm 15.2 6.8 7.3 59 3.9 WSW 41 54 22 29 1024.1 1024.2 0.0
22/03:30pm 15.2 8.1 8.0 62 3.6 WSW 35 46 19 25 1023.9 1024.0 0.0
22/03:00pm 14.7 7.6 8.0 64 3.3 SW 35 44 19 24 1024.0 1024.1 0.0
22/02:30pm 16.1 9.1 8.3 60 4.0 SW 35 44 19 24 1023.9 1024.0 0.0
22/02:09pm 16.5 10.1 8.5 59 4.1 WSW 32 50 17 27 1024.3 1024.4 0.0
22/02:00pm 16.8 10.2 8.5 58 4.2 SW 33 43 18 23 1024.3 1024.4 0.0
22/01:30pm 16.7 10.1 8.7 59 4.1 SW 33 46 18 25 1024.5 1024.6 0.0
22/01:00pm 17.1 10.3 7.5 53 4.8 W 33 41 18 22 1024.7 1024.8 0.0
22/12:30pm 17.7 11.4 9.1 57 4.5 W 32 43 17 23 1025.0 1025.1 0.0
22/12:00pm 17.2 11.1 8.1 55 4.6 W 30 39 16 21 1025.3 1025.4 0.0
22/11:30am 16.9 11.0 7.3 53 4.8 W 28 35 15 19 1025.4 1025.5 0.0
22/11:00am 16.6 10.0 7.8 56 4.4 W 32 39 17 21 1025.5 1025.6 0.0
22/10:30am 16.2 11.5 9.2 63 3.6 W 24 33 13 18 1025.7 1025.8 0.0
22/10:00am 16.4 12.3 10.0 66 3.3 W 22 32 12 17 1025.9 1026.0 0.0
22/09:30am 14.7 10.5 9.7 72 2.6 WSW 22 28 12 15 1026.1 1026.2 0.0
22/09:00am 14.2 10.5 9.4 73 2.4 W 19 22 10 12 1026.1 1026.2 0.0
22/08:30am 12.7 10.4 11.9 95 0.4 W 15 20 8 11 1026.2 1026.3 0.0
22/08:00am 10.3 10.4 10.3 100 0.0 CALM 0 0 0 0 1026.1 1026.2 0.0
22/07:30am 8.4 8.0 8.4 100 0.0 CALM 0 6 0 3 1026.0 1026.1 0.0
22/07:00am 4.9 2.4 4.9 100 0.0 N 7 9 4 5 1025.9 1026.0 0.0
22/06:30am 4.4 1.5 4.4 100 0.0 N 9 13 5 7 1025.8 1025.9 0.0
22/06:00am 1.3 -2.6 1.3 100 0.0 N 11 11 6 6 1025.7 1025.8 0.0
22/05:30am 2.1 0.4 2.1 100 0.0 CALM 0 0 0 0 1025.6 1025.7 0.0
22/05:00am 1.4 -0.4 1.3 99 0.0 CALM 0 0 0 0 1025.6 1025.7 0.0
22/04:30am 2.8 1.3 2.8 100 0.0 CALM 0 0 0 0 1025.4 1025.5 0.0
22/04:00am 2.4 0.8 2.4 100 0.0 CALM 0 0 0 0 1025.4 1025.5 0.0
22/03:30am 1.7 -1.7 1.6 99 0.0 NNW 9 11 5 6 1025.4 1025.5 0.0
22/03:00am 1.3 -2.2 1.0 98 0.1 NW 9 9 5 5 1025.4 1025.5 0.0
22/02:30am 3.0 0.3 2.9 99 0.0 W 6 7 3 4 1025.7 1025.8 0.0
22/02:00am 2.8 0.1 2.7 99 0.0 NNW 6 7 3 4 1026.1 1026.2 0.0
22/01:30am 3.3 0.5 3.2 99 0.0 N 7 7 4 4 1026.3 1026.4 0.0
22/01:00am 3.8 1.1 3.7 99 0.0 NNE 7 9 4 5 1026.4 1026.5 0.0
22/12:30am 4.1 0.7 3.8 98 0.1 NNE 11 13 6 7 1026.5 1026.6 0.0
22/12:00am 4.5 1.1 4.2 98 0.1 NNE 11 13 6 7 1026.5 1026.6 0.0
 
Date/Time
EST
Temp
°C
App
Temp
°C
Dew
Point
°C
Rel
Hum
%
Delta-T
°C
Wind Press
QNH
hPa
Press
MSL
hPa
Rain since
9am
mm
Dir  Spd
km/h
Gust
km/h
Spd
kts
Gust
kts
21/11:30pm 4.2 1.1 3.6 96 0.2 NNE 9 13 5 7 1026.7 1026.8 0.0
21/11:00pm 4.8 1.8 4.2 96 0.3 N 9 9 5 5 1026.8 1026.9 0.0
21/10:30pm 4.9 1.9 4.0 94 0.4 N 9 11 5 6 1026.9 1027.0 0.0
21/10:00pm 5.9 3.0 4.7 92 0.5 N 9 9 5 5 1026.9 1027.0 0.0
21/09:30pm 7.7 5.6 6.5 92 0.5 NNW 7 7 4 4 1026.9 1027.0 0.0
21/09:00pm 8.9 6.6 7.4 90 0.7 W 9 11 5 6 1026.9 1027.0 0.0
21/08:30pm 9.7 6.7 7.6 87 1.0 WSW 13 19 7 10 1026.9 1027.0 0.0
21/08:00pm 11.0 6.9 8.8 86 1.1 WSW 20 24 11 13 1026.5 1026.6 0.0
21/07:30pm 9.8 6.7 7.2 84 1.2 WSW 13 17 7 9 1026.1 1026.2 0.0
21/07:00pm 10.6 7.6 7.5 81 1.5 WSW 13 13 7 7 1025.7 1025.8 0.0
21/06:30pm 11.4 8.0 7.7 78 1.8 WSW 15 17 8 9 1025.2 1025.3 0.0
21/06:00pm 13.0 9.3 8.1 72 2.4 WSW 17 22 9 12 1024.8 1024.9 0.0
21/05:30pm 14.5 10.3 8.2 66 3.2 WSW 20 26 11 14 1024.6 1024.7 0.0
21/05:00pm 15.4 9.4 7.2 58 4.0 WSW 28 37 15 20 1024.4 1024.5 0.0
21/04:30pm 15.7 9.4 7.2 57 4.2 WSW 30 37 16 20 1024.3 1024.4 0.0
21/04:00pm 16.2 9.5 7.2 55 4.4 WSW 32 39 17 21 1024.2 1024.3 0.0
21/03:30pm 16.6 9.9 7.5 55 4.6 WSW 32 39 17 21 1024.1 1024.2 0.0
21/03:00pm 16.9 11.0 7.3 53 4.8 W 28 37 15 20 1024.1 1024.2 0.0
21/02:30pm 16.9 10.1 6.7 51 5.0 W 32 41 17 22 1024.3 1024.4 0.0
21/02:00pm 17.0 11.0 7.1 52 4.9 W 28 37 15 20 1024.5 1024.6 0.0
21/01:30pm 16.7 9.9 6.8 52 4.9 WNW 32 39 17 21 1024.6 1024.7 0.0
21/01:00pm 16.8 10.4 6.9 52 4.9 W 30 39 16 21 1024.8 1024.9 0.0
21/12:30pm 16.5 10.5 7.2 54 4.6 W 28 39 15 21 1025.1 1025.2 0.0
21/12:00pm 15.8 9.7 6.5 54 4.5 WNW 28 41 15 22 1025.4 1025.5 0.0
21/11:30am 14.6 9.4 7.2 61 3.6 W 24 30 13 16 1025.6 1025.7 0.0
21/11:00am 14.6 10.2 7.4 62 3.5 W 20 26 11 14 1025.8 1025.9 0.0
21/10:30am 14.5 8.5 7.1 61 3.6 WNW 28 37 15 20 1025.8 1025.9 0.0
21/10:00am 13.6 7.6 6.9 64 3.2 W 28 35 15 19 1026.0 1026.1 0.0
21/09:30am 13.0 6.5 6.6 65 3.1 WNW 30 41 16 22 1025.9 1026.0 0.0
21/09:00am 14.0 8.1 7.3 64 3.3 WNW 28 35 15 19 1025.8 1025.9 0.0
21/08:30am 12.9 7.8 7.8 71 2.5 WNW 24 39 13 21 1025.7 1025.8 0.0
21/08:00am 12.0 8.7 8.1 77 1.9 WNW 15 20 8 11 1025.8 1025.9 0.0
21/07:30am 10.9 7.7 8.5 85 1.2 WNW 15 20 8 11 1025.6 1025.7 0.0
21/07:00am 10.1 7.3 8.7 91 0.7 NW 13 17 7 9 1025.4 1025.5 0.0
21/06:30am 9.4 6.2 8.5 94 0.4 NW 15 17 8 9 1025.0 1025.1 0.0
21/06:00am 7.2 3.9 6.3 94 0.4 NW 13 15 7 8 1024.6 1024.7 0.0
21/05:30am 8.4 5.3 7.3 93 0.5 NW 13 15 7 8 1024.3 1024.4 0.0
21/05:00am 8.8 6.5 7.6 92 0.6 WNW 9 11 5 6 1024.0 1024.1 0.0
21/04:30am 9.8 7.8 8.6 92 0.6 W 9 13 5 7 1023.7 1023.8 0.0
21/04:00am 9.7 8.1 8.6 93 0.5 NW 7 9 4 5 1023.6 1023.7 0.0
21/03:30am 9.5 7.8 8.4 93 0.5 W 7 11 4 6 1023.5 1023.6 0.0
21/03:00am 9.8 8.2 8.7 93 0.5 W 7 9 4 5 1023.5 1023.6 0.0
21/02:30am 9.6 7.6 8.5 93 0.5 WNW 9 11 5 6 1023.6 1023.7 0.0
21/02:00am 9.4 7.4 8.5 94 0.4 NW 9 11 5 6 1023.8 1023.9 0.0
21/01:30am 8.5 6.2 7.6 94 0.4 NW 9 11 5 6 1023.9 1024.0 0.0
21/01:00am 7.7 5.1 6.3 91 0.6 NW 9 11 5 6 1023.8 1023.9 0.0
21/12:30am 7.5 5.3 6.0 90 0.7 NNW 7 9 4 5 1023.7 1023.8 0.0
21/12:00am 8.0 5.4 6.1 88 0.9 NW 9 11 5 6 1023.6 1023.7 0.0
 
Date/Time
EST
Temp
°C
App
Temp
°C
Dew
Point
°C
Rel
Hum
%
Delta-T
°C
Wind Press
QNH
hPa
Press
MSL
hPa
Rain since
9am
mm
Dir  Spd
km/h
Gust
km/h
Spd
kts
Gust
kts
20/11:30pm 8.1 5.1 6.2 88 0.9 NW 11 13 6 7 1023.5 1023.6 0.0
20/11:00pm 7.8 4.3 5.4 85 1.1 NW 13 13 7 7 1023.6 1023.7 0.0
20/10:30pm 7.2 3.5 4.5 83 1.2 NW 13 15 7 8 1023.7 1023.8 0.0
20/10:00pm 8.0 4.6 5.8 86 1.0 WNW 13 15 7 8 1023.5 1023.6 0.0
20/09:30pm 7.1 3.1 5.1 87 0.9 WNW 15 17 8 9 1023.4 1023.5 0.0
20/09:00pm 6.7 3.0 4.5 86 0.9 WSW 13 17 7 9 1023.1 1023.2 0.0
20/08:30pm 7.4 4.5 4.5 82 1.3 NNW 9 13 5 7 1022.5 1022.6 0.0
20/08:00pm 5.4 1.8 2.9 84 1.0 N 11 13 6 7 1022.1 1022.2 0.0
20/07:30pm 7.1 3.9 3.0 75 1.7 NW 9 13 5 7 1022.0 1022.1 0.0
20/07:00pm 9.1 6.2 4.7 74 1.9 WNW 9 11 5 6 1021.7 1021.8 0.0
20/06:30pm 10.4 7.7 5.4 71 2.3 W 9 11 5 6 1021.4 1021.5 0.0
20/06:00pm 11.8 8.4 5.7 66 2.8 W 13 17 7 9 1021.1 1021.2 0.0
20/05:30pm 13.7 9.9 5.8 59 3.7 W 15 22 8 12 1020.8 1020.9 0.0
20/05:00pm 14.4 10.3 6.0 57 4.0 W 17 24 9 13 1020.6 1020.7 0.0
20/04:30pm 14.8 8.8 5.1 52 4.6 W 26 33 14 18 1020.4 1020.5 0.0
20/04:00pm 15.0 9.0 5.2 52 4.6 W 26 35 14 19 1020.3 1020.4 0.0
20/03:30pm 15.2 9.1 4.9 50 4.8 W 26 33 14 18 1020.2 1020.3 0.0
20/03:00pm 15.5 9.8 4.8 49 5.0 W 24 37 13 20 1020.2 1020.3 0.0
20/02:30pm 14.1 9.2 5.2 55 4.2 W 20 33 11 18 1020.2 1020.3 0.0
20/02:00pm 14.8 9.2 5.3 53 4.5 W 24 33 13 18 1020.0 1020.1 0.0
20/01:30pm 14.5 8.5 5.3 54 4.3 WNW 26 33 14 18 1020.1 1020.2 0.0
20/01:00pm 12.8 6.6 6.2 64 3.1 W 28 39 15 21 1020.6 1020.7 0.0
20/12:30pm 13.7 7.7 5.1 56 4.0 W 26 35 14 19 1020.5 1020.6 0.0
20/12:00pm 13.4 6.7 5.6 59 3.7 W 30 39 16 21 1020.6 1020.7 0.0
20/11:30am 13.2 7.9 4.9 57 3.8 W 22 30 12 16 1020.3 1020.4 0.0
20/11:00am 13.7 8.1 5.3 57 3.9 W 24 33 13 18 1020.0 1020.1 0.0
20/10:30am 13.6 8.4 5.7 59 3.7 WNW 22 30 12 16 1019.7 1019.8 0.0
20/10:00am 12.8 6.9 5.7 62 3.3 W 26 35 14 19 1019.5 1019.6 0.0
20/09:30am 11.5 6.4 6.0 69 2.6 WNW 22 30 12 16 1019.6 1019.7 0.0
20/09:00am 10.2 6.3 7.1 81 1.5 WNW 17 22 9 12 1019.7 1019.8 2.2
20/08:30am 9.3 4.7 6.6 83 1.3 W 20 26 11 14 1019.8 1019.9 2.0
20/08:00am 8.7 5.2 7.0 89 0.8 WNW 15 22 8 12 1019.4 1019.5 2.0
20/07:30am 8.0 4.4 6.9 93 0.5 WSW 15 19 8 10 1019.4 1019.5 2.0
20/07:00am 6.6 4.0 6.0 96 0.3 WNW 9 13 5 7 1018.9 1019.0 2.0
20/06:30am 4.4 1.7 3.8 96 0.2 WNW 7 11 4 6 1018.5 1018.5 2.0
20/06:00am 4.2 1.5 3.5 95 0.3 WNW 7 9 4 5 1018.1 1018.1 2.0
20/05:30am 4.8 2.4 4.2 96 0.3 NW 6 7 3 4 1017.7 1017.7 2.0
20/05:00am 5.2 2.7 4.8 97 0.2 NW 7 9 4 5 1017.5 1017.5 2.0
20/04:30am 4.2 0.8 4.1 99 0.0 W 11 15 6 8 1017.6 1017.6 1.8
20/04:00am 1.2 -2.4 0.6 96 0.2 NNW 9 11 5 6 1017.2 1017.2 1.8
20/03:30am 2.2 -0.7 1.5 95 0.3 NW 6 7 3 4 1017.1 1017.1 1.8
20/03:00am 2.9 -0.1 2.2 95 0.3 WSW 7 9 4 5 1017.2 1017.2 1.8
20/02:30am 2.4 -0.7 1.4 93 0.4 NNW 7 9 4 5 1017.4 1017.4 1.8
20/02:00am 2.5 -0.4 1.2 91 0.5 NNW 6 7 3 4 1017.5 1017.5 1.8
20/01:30am 4.2 1.3 2.7 90 0.6 SW 7 9 4 5 1017.6 1017.6 1.8
20/01:00am 5.3 1.8 3.5 88 0.7 W 11 20 6 11 1017.5 1017.5 1.8
20/12:30am 5.3 2.1 3.3 87 0.8 NW 9 11 5 6 1017.3 1017.3 1.8
20/12:00am 5.6 2.1 3.6 87 0.8 WNW 11 15 6 8 1017.2 1017.2 1.8
 
Date/Time
EST
Temp
°C
App
Temp
°C
Dew
Point
°C
Rel
Hum
%
Delta-T
°C
Wind Press
QNH
hPa
Press
MSL
hPa
Rain since
9am
mm
Dir  Spd
km/h
Gust
km/h
Spd
kts
Gust
kts
19/11:30pm 5.8 2.4 3.8 87 0.8 WNW 11 13 6 7 1017.3 1017.3 1.6
19/11:00pm 6.0 1.9 4.3 89 0.7 WNW 15 17 8 9 1017.1 1017.1 1.6
19/10:30pm 5.9 1.8 4.1 88 0.8 WNW 15 17 8 9 1017.0 1017.0 1.6
19/10:00pm 5.9 1.8 4.2 89 0.7 WNW 15 15 8 8 1016.8 1016.8 1.6
19/09:30pm 5.6 1.8 3.8 88 0.8 WNW 13 15 7 8 1016.7 1016.7 1.6
19/09:00pm 6.0 2.6 4.0 87 0.8 WNW 11 15 6 8 1016.5 1016.5 1.6
19/08:30pm 5.9 2.1 3.9 87 0.8 NW 13 15 7 8 1016.3 1016.3 1.6
19/08:00pm 5.9 2.5 3.9 87 0.8 NW 11 13 6 7 1016.0 1016.0 1.6
19/07:30pm 6.4 3.4 3.9 84 1.1 W 9 11 5 6 1015.7 1015.7 1.6
19/07:00pm 7.2 3.5 4.7 84 1.1 WNW 13 15 7 8 1015.3 1015.3 1.6
19/06:30pm 8.2 4.1 4.6 78 1.6 W 15 19 8 10 1015.0 1015.0 1.6
19/06:00pm 9.6 4.8 4.8 72 2.1 W 19 24 10 13 1014.8 1014.8 1.6

Other Formats:

Comma delimited format used in spreadsheet applications
http://www.bom.gov.au/fwo/IDV60801/IDV60801.95890.axf

JavaScript Object Notation format (JSON) in row-major order
http://www.bom.gov.au/fwo/IDV60801/IDV60801.95890.json